sensor_id;sensor_type;location;lat;lon;timestamp;temperature;humidity
39493;DHT22;25176;51.060;3.720;2023-05-18T00:00:03;12.30;83.40
39493;DHT22;25176;51.060;3.720;2023-05-18T00:02:35;12.30;83.30
39493;DHT22;25176;51.060;3.720;2023-05-18T00:05:00;12.30;82.80
39493;DHT22;25176;51.060;3.720;2023-05-18T00:07:26;12.40;82.80
39493;DHT22;25176;51.060;3.720;2023-05-18T00:09:54;12.10;80.90
39493;DHT22;25176;51.060;3.720;2023-05-18T00:12:19;12.00;81.90
39493;DHT22;25176;51.060;3.720;2023-05-18T00:14:45;12.00;81.10
39493;DHT22;25176;51.060;3.720;2023-05-18T00:17:10;11.80;80.90
39493;DHT22;25176;51.060;3.720;2023-05-18T00:19:36;11.60;80.50
39493;DHT22;25176;51.060;3.720;2023-05-18T00:22:01;11.40;81.20
39493;DHT22;25176;51.060;3.720;2023-05-18T00:24:27;11.30;81.30
39493;DHT22;25176;51.060;3.720;2023-05-18T00:26:52;11.30;82.40
39493;DHT22;25176;51.060;3.720;2023-05-18T00:29:18;11.30;82.40
39493;DHT22;25176;51.060;3.720;2023-05-18T00:31:43;11.20;82.90
39493;DHT22;25176;51.060;3.720;2023-05-18T00:34:10;11.10;83.40
39493;DHT22;25176;51.060;3.720;2023-05-18T00:36:36;11.10;83.30
39493;DHT22;25176;51.060;3.720;2023-05-18T00:39:02;11.10;83.90
39493;DHT22;25176;51.060;3.720;2023-05-18T00:41:28;11.10;84.00
39493;DHT22;25176;51.060;3.720;2023-05-18T00:43:55;11.00;84.00
39493;DHT22;25176;51.060;3.720;2023-05-18T00:46:21;10.90;84.50
39493;DHT22;25176;51.060;3.720;2023-05-18T00:48:47;11.00;84.20
39493;DHT22;25176;51.060;3.720;2023-05-18T00:51:13;10.90;84.60
39493;DHT22;25176;51.060;3.720;2023-05-18T00:53:39;10.80;84.70
39493;DHT22;25176;51.060;3.720;2023-05-18T00:56:06;11.00;84.60
39493;DHT22;25176;51.060;3.720;2023-05-18T00:58:31;10.80;84.80
39493;DHT22;25176;51.060;3.720;2023-05-18T01:00:57;10.70;84.90
39493;DHT22;25176;51.060;3.720;2023-05-18T01:03:23;10.70;84.70
39493;DHT22;25176;51.060;3.720;2023-05-18T01:05:50;10.60;85.00
39493;DHT22;25176;51.060;3.720;2023-05-18T01:08:23;10.60;85.10
39493;DHT22;25176;51.060;3.720;2023-05-18T01:11:37;10.70;85.10
39493;DHT22;25176;51.060;3.720;2023-05-18T01:13:37;10.70;84.70
39493;DHT22;25176;51.060;3.720;2023-05-18T01:16:05;10.60;84.80
39493;DHT22;25176;51.060;3.720;2023-05-18T01:18:36;10.60;84.80
39493;DHT22;25176;51.060;3.720;2023-05-18T01:21:17;10.60;84.80
39493;DHT22;25176;51.060;3.720;2023-05-18T01:26:22;10.60;85.00
39493;DHT22;25176;51.060;3.720;2023-05-18T01:28:54;10.50;85.50
39493;DHT22;25176;51.060;3.720;2023-05-18T01:31:20;10.60;85.10
39493;DHT22;25176;51.060;3.720;2023-05-18T01:33:45;10.60;84.40
39493;DHT22;25176;51.060;3.720;2023-05-18T01:36:11;10.40;84.80
39493;DHT22;25176;51.060;3.720;2023-05-18T01:38:36;10.30;85.80
39493;DHT22;25176;51.060;3.720;2023-05-18T01:43:34;10.40;86.10
39493;DHT22;25176;51.060;3.720;2023-05-18T01:46:03;10.40;85.60
39493;DHT22;25176;51.060;3.720;2023-05-18T01:48:29;10.50;84.90
39493;DHT22;25176;51.060;3.720;2023-05-18T01:50:57;10.30;86.00
39493;DHT22;25176;51.060;3.720;2023-05-18T01:53:24;10.30;86.00
39493;DHT22;25176;51.060;3.720;2023-05-18T01:55:51;10.20;85.90
39493;DHT22;25176;51.060;3.720;2023-05-18T01:58:18;10.20;86.50
39493;DHT22;25176;51.060;3.720;2023-05-18T02:00:45;10.20;86.30
39493;DHT22;25176;51.060;3.720;2023-05-18T02:03:11;10.20;86.20
39493;DHT22;25176;51.060;3.720;2023-05-18T02:05:37;10.20;86.20
39493;DHT22;25176;51.060;3.720;2023-05-18T02:08:02;10.20;86.50
39493;DHT22;25176;51.060;3.720;2023-05-18T02:10:28;10.20;85.90
39493;DHT22;25176;51.060;3.720;2023-05-18T02:12:53;10.10;87.00
39493;DHT22;25176;51.060;3.720;2023-05-18T02:15:19;10.20;86.50
39493;DHT22;25176;51.060;3.720;2023-05-18T02:17:44;10.10;86.10
39493;DHT22;25176;51.060;3.720;2023-05-18T02:20:10;10.10;86.30
39493;DHT22;25176;51.060;3.720;2023-05-18T02:22:35;10.10;86.20
39493;DHT22;25176;51.060;3.720;2023-05-18T02:25:01;10.00;86.10
39493;DHT22;25176;51.060;3.720;2023-05-18T02:27:27;10.00;86.80
39493;DHT22;25176;51.060;3.720;2023-05-18T02:29:52;10.00;86.60
39493;DHT22;25176;51.060;3.720;2023-05-18T02:32:18;9.90;86.10
39493;DHT22;25176;51.060;3.720;2023-05-18T02:34:44;9.90;86.80
39493;DHT22;25176;51.060;3.720;2023-05-18T02:37:10;9.90;87.10
39493;DHT22;25176;51.060;3.720;2023-05-18T02:39:38;9.80;86.80
39493;DHT22;25176;51.060;3.720;2023-05-18T02:42:04;9.70;87.00
39493;DHT22;25176;51.060;3.720;2023-05-18T02:44:29;9.80;87.40
39493;DHT22;25176;51.060;3.720;2023-05-18T02:46:55;9.80;87.20
39493;DHT22;25176;51.060;3.720;2023-05-18T02:49:20;9.90;86.90
39493;DHT22;25176;51.060;3.720;2023-05-18T02:51:46;9.80;87.10
39493;DHT22;25176;51.060;3.720;2023-05-18T02:54:11;10.00;86.70
39493;DHT22;25176;51.060;3.720;2023-05-18T02:56:37;10.00;85.80
39493;DHT22;25176;51.060;3.720;2023-05-18T02:59:02;10.10;85.70
39493;DHT22;25176;51.060;3.720;2023-05-18T03:01:28;10.10;85.40
39493;DHT22;25176;51.060;3.720;2023-05-18T03:03:55;10.10;85.50
39493;DHT22;25176;51.060;3.720;2023-05-18T03:06:24;10.10;85.10
39493;DHT22;25176;51.060;3.720;2023-05-18T03:08:53;10.10;85.60
39493;DHT22;25176;51.060;3.720;2023-05-18T03:11:19;9.90;86.10
39493;DHT22;25176;51.060;3.720;2023-05-18T03:13:46;9.80;86.40
39493;DHT22;25176;51.060;3.720;2023-05-18T03:16:11;10.00;87.00
39493;DHT22;25176;51.060;3.720;2023-05-18T03:18:37;10.10;86.50
39493;DHT22;25176;51.060;3.720;2023-05-18T03:21:03;10.10;86.60
39493;DHT22;25176;51.060;3.720;2023-05-18T03:23:29;10.20;85.20
39493;DHT22;25176;51.060;3.720;2023-05-18T03:25:54;10.30;85.90
39493;DHT22;25176;51.060;3.720;2023-05-18T03:28:21;10.40;85.10
39493;DHT22;25176;51.060;3.720;2023-05-18T03:30:46;10.50;84.50
39493;DHT22;25176;51.060;3.720;2023-05-18T03:33:12;10.40;84.30
39493;DHT22;25176;51.060;3.720;2023-05-18T03:35:38;10.40;84.60
39493;DHT22;25176;51.060;3.720;2023-05-18T03:38:07;10.50;84.30
39493;DHT22;25176;51.060;3.720;2023-05-18T03:40:33;10.30;84.30
39493;DHT22;25176;51.060;3.720;2023-05-18T03:42:58;10.30;84.40
39493;DHT22;25176;51.060;3.720;2023-05-18T03:45:24;10.30;84.20
39493;DHT22;25176;51.060;3.720;2023-05-18T03:47:49;10.40;83.90
39493;DHT22;25176;51.060;3.720;2023-05-18T03:50:15;10.30;85.00
39493;DHT22;25176;51.060;3.720;2023-05-18T03:52:41;10.10;84.10
39493;DHT22;25176;51.060;3.720;2023-05-18T03:55:08;10.00;85.00
39493;DHT22;25176;51.060;3.720;2023-05-18T03:57:34;10.10;85.00
39493;DHT22;25176;51.060;3.720;2023-05-18T03:59:59;10.10;84.10
39493;DHT22;25176;51.060;3.720;2023-05-18T04:02:25;10.00;84.30
39493;DHT22;25176;51.060;3.720;2023-05-18T04:04:50;9.80;84.80
39493;DHT22;25176;51.060;3.720;2023-05-18T04:07:18;9.70;85.40
39493;DHT22;25176;51.060;3.720;2023-05-18T04:09:46;9.70;86.30
39493;DHT22;25176;51.060;3.720;2023-05-18T04:12:12;9.70;86.00
39493;DHT22;25176;51.060;3.720;2023-05-18T04:14:38;9.80;85.60
39493;DHT22;25176;51.060;3.720;2023-05-18T04:17:06;9.80;84.80
39493;DHT22;25176;51.060;3.720;2023-05-18T04:19:35;9.80;85.60
39493;DHT22;25176;51.060;3.720;2023-05-18T04:22:01;9.80;85.20
39493;DHT22;25176;51.060;3.720;2023-05-18T04:24:30;9.90;85.10
39493;DHT22;25176;51.060;3.720;2023-05-18T04:26:59;9.90;85.10
39493;DHT22;25176;51.060;3.720;2023-05-18T04:29:25;9.90;85.10
39493;DHT22;25176;51.060;3.720;2023-05-18T04:31:52;9.90;84.40
39493;DHT22;25176;51.060;3.720;2023-05-18T04:34:18;9.80;84.50
39493;DHT22;25176;51.060;3.720;2023-05-18T04:36:43;9.80;85.00
39493;DHT22;25176;51.060;3.720;2023-05-18T04:39:09;9.70;86.00
39493;DHT22;25176;51.060;3.720;2023-05-18T04:41:35;9.70;85.50
39493;DHT22;25176;51.060;3.720;2023-05-18T04:44:01;9.60;86.00
39493;DHT22;25176;51.060;3.720;2023-05-18T04:46:27;9.60;85.90
39493;DHT22;25176;51.060;3.720;2023-05-18T04:48:53;9.70;85.40
39493;DHT22;25176;51.060;3.720;2023-05-18T04:51:25;9.70;85.40
39493;DHT22;25176;51.060;3.720;2023-05-18T04:53:50;9.60;85.50
39493;DHT22;25176;51.060;3.720;2023-05-18T04:56:16;9.70;85.80
39493;DHT22;25176;51.060;3.720;2023-05-18T04:58:42;9.60;85.90
39493;DHT22;25176;51.060;3.720;2023-05-18T05:01:10;9.60;86.30
39493;DHT22;25176;51.060;3.720;2023-05-18T05:03:36;9.60;85.90
39493;DHT22;25176;51.060;3.720;2023-05-18T05:06:01;9.80;86.10
39493;DHT22;25176;51.060;3.720;2023-05-18T05:08:27;9.80;85.60
39493;DHT22;25176;51.060;3.720;2023-05-18T05:10:52;9.70;85.40
39493;DHT22;25176;51.060;3.720;2023-05-18T05:13:18;9.70;86.00
39493;DHT22;25176;51.060;3.720;2023-05-18T05:15:43;9.70;86.10
39493;DHT22;25176;51.060;3.720;2023-05-18T05:18:09;9.70;85.70
39493;DHT22;25176;51.060;3.720;2023-05-18T05:20:35;9.80;85.70
39493;DHT22;25176;51.060;3.720;2023-05-18T05:23:00;9.80;84.90
39493;DHT22;25176;51.060;3.720;2023-05-18T05:25:26;9.80;85.00
39493;DHT22;25176;51.060;3.720;2023-05-18T05:27:51;9.90;84.80
39493;DHT22;25176;51.060;3.720;2023-05-18T05:30:17;10.00;84.50
39493;DHT22;25176;51.060;3.720;2023-05-18T05:32:42;9.90;84.90
39493;DHT22;25176;51.060;3.720;2023-05-18T05:35:08;9.90;84.80
39493;DHT22;25176;51.060;3.720;2023-05-18T05:37:33;10.00;84.80
39493;DHT22;25176;51.060;3.720;2023-05-18T05:39:59;10.10;84.10
39493;DHT22;25176;51.060;3.720;2023-05-18T05:42:24;10.10;84.50
39493;DHT22;25176;51.060;3.720;2023-05-18T05:44:50;10.20;84.00
39493;DHT22;25176;51.060;3.720;2023-05-18T05:47:15;10.30;84.00
39493;DHT22;25176;51.060;3.720;2023-05-18T05:49:41;10.30;83.30
39493;DHT22;25176;51.060;3.720;2023-05-18T05:52:06;10.30;83.60
39493;DHT22;25176;51.060;3.720;2023-05-18T05:54:32;10.20;84.30
39493;DHT22;25176;51.060;3.720;2023-05-18T05:56:57;10.10;84.60
39493;DHT22;25176;51.060;3.720;2023-05-18T05:59:23;10.20;84.20
39493;DHT22;25176;51.060;3.720;2023-05-18T06:01:48;10.20;84.20
39493;DHT22;25176;51.060;3.720;2023-05-18T06:04:14;10.40;84.50
39493;DHT22;25176;51.060;3.720;2023-05-18T06:06:40;10.30;83.50
39493;DHT22;25176;51.060;3.720;2023-05-18T06:09:06;10.50;83.70
39493;DHT22;25176;51.060;3.720;2023-05-18T06:11:31;10.50;83.20
39493;DHT22;25176;51.060;3.720;2023-05-18T06:13:57;10.50;83.20
39493;DHT22;25176;51.060;3.720;2023-05-18T06:16:23;10.50;83.20
39493;DHT22;25176;51.060;3.720;2023-05-18T06:18:49;10.60;83.70
39493;DHT22;25176;51.060;3.720;2023-05-18T06:21:15;10.70;83.00
39493;DHT22;25176;51.060;3.720;2023-05-18T06:23:41;10.90;82.20
39493;DHT22;25176;51.060;3.720;2023-05-18T06:26:07;10.90;81.80
39493;DHT22;25176;51.060;3.720;2023-05-18T06:28:32;11.00;81.70
39493;DHT22;25176;51.060;3.720;2023-05-18T06:30:58;11.20;80.50
39493;DHT22;25176;51.060;3.720;2023-05-18T06:33:23;11.20;80.70
39493;DHT22;25176;51.060;3.720;2023-05-18T06:35:49;11.30;80.50
39493;DHT22;25176;51.060;3.720;2023-05-18T06:38:15;11.40;80.30
39493;DHT22;25176;51.060;3.720;2023-05-18T06:40:40;11.60;80.30
39493;DHT22;25176;51.060;3.720;2023-05-18T06:43:06;11.60;79.30
39493;DHT22;25176;51.060;3.720;2023-05-18T06:45:32;11.60;79.70
39493;DHT22;25176;51.060;3.720;2023-05-18T06:47:57;11.80;79.00
39493;DHT22;25176;51.060;3.720;2023-05-18T06:50:23;11.90;78.50
39493;DHT22;25176;51.060;3.720;2023-05-18T06:52:48;12.30;78.10
39493;DHT22;25176;51.060;3.720;2023-05-18T06:55:14;12.70;77.40
39493;DHT22;25176;51.060;3.720;2023-05-18T06:57:40;13.40;74.40
39493;DHT22;25176;51.060;3.720;2023-05-18T07:00:06;15.00;73.00
39493;DHT22;25176;51.060;3.720;2023-05-18T07:02:32;16.40;68.40
39493;DHT22;25176;51.060;3.720;2023-05-18T07:04:58;16.90;66.60
39493;DHT22;25176;51.060;3.720;2023-05-18T07:07:23;18.20;63.60
39493;DHT22;25176;51.060;3.720;2023-05-18T07:09:49;19.30;60.30
39493;DHT22;25176;51.060;3.720;2023-05-18T07:12:15;21.50;58.30
39493;DHT22;25176;51.060;3.720;2023-05-18T07:14:40;22.40;56.60
39493;DHT22;25176;51.060;3.720;2023-05-18T07:17:06;23.40;52.40
39493;DHT22;25176;51.060;3.720;2023-05-18T07:19:31;22.30;52.90
39493;DHT22;25176;51.060;3.720;2023-05-18T07:21:57;23.20;53.40
39493;DHT22;25176;51.060;3.720;2023-05-18T07:24:24;23.40;51.00
39493;DHT22;25176;51.060;3.720;2023-05-18T07:26:49;22.80;52.40
39493;DHT22;25176;51.060;3.720;2023-05-18T07:29:15;23.00;51.70
39493;DHT22;25176;51.060;3.720;2023-05-18T07:31:40;24.80;50.40
39493;DHT22;25176;51.060;3.720;2023-05-18T07:34:06;26.20;47.60
39493;DHT22;25176;51.060;3.720;2023-05-18T07:36:32;24.80;49.00
39493;DHT22;25176;51.060;3.720;2023-05-18T07:38:58;26.20;48.30
39493;DHT22;25176;51.060;3.720;2023-05-18T07:41:24;24.90;47.10
39493;DHT22;25176;51.060;3.720;2023-05-18T07:43:50;26.70;47.30
39493;DHT22;25176;51.060;3.720;2023-05-18T07:46:16;26.30;47.10
39493;DHT22;25176;51.060;3.720;2023-05-18T07:48:42;28.10;46.40
39493;DHT22;25176;51.060;3.720;2023-05-18T07:51:07;27.90;45.20
39493;DHT22;25176;51.060;3.720;2023-05-18T07:53:33;28.50;43.90
39493;DHT22;25176;51.060;3.720;2023-05-18T07:55:59;27.30;44.40
39493;DHT22;25176;51.060;3.720;2023-05-18T07:58:24;28.40;44.00
39493;DHT22;25176;51.060;3.720;2023-05-18T08:00:50;28.30;43.80
39493;DHT22;25176;51.060;3.720;2023-05-18T08:03:16;29.10;43.80
39493;DHT22;25176;51.060;3.720;2023-05-18T08:05:42;31.10;42.80
39493;DHT22;25176;51.060;3.720;2023-05-18T08:08:07;30.30;40.90
39493;DHT22;25176;51.060;3.720;2023-05-18T08:10:36;27.60;44.30
39493;DHT22;25176;51.060;3.720;2023-05-18T08:13:01;27.40;43.70
39493;DHT22;25176;51.060;3.720;2023-05-18T08:15:27;28.60;43.00
39493;DHT22;25176;51.060;3.720;2023-05-18T08:17:53;29.80;42.80
39493;DHT22;25176;51.060;3.720;2023-05-18T08:20:19;28.60;43.10
39493;DHT22;25176;51.060;3.720;2023-05-18T08:22:44;29.90;42.50
39493;DHT22;25176;51.060;3.720;2023-05-18T08:25:10;29.30;42.30
39493;DHT22;25176;51.060;3.720;2023-05-18T08:27:35;28.50;42.20
39493;DHT22;25176;51.060;3.720;2023-05-18T08:30:01;28.90;41.40
39493;DHT22;25176;51.060;3.720;2023-05-18T08:32:26;28.00;42.10
39493;DHT22;25176;51.060;3.720;2023-05-18T08:34:52;27.70;44.30
39493;DHT22;25176;51.060;3.720;2023-05-18T08:37:18;27.50;43.60
39493;DHT22;25176;51.060;3.720;2023-05-18T08:39:44;29.80;41.40
39493;DHT22;25176;51.060;3.720;2023-05-18T08:44:45;32.20;39.90
39493;DHT22;25176;51.060;3.720;2023-05-18T08:47:14;33.60;38.60
39493;DHT22;25176;51.060;3.720;2023-05-18T08:49:41;32.90;38.30
39493;DHT22;25176;51.060;3.720;2023-05-18T08:52:07;32.20;38.90
39493;DHT22;25176;51.060;3.720;2023-05-18T08:54:33;29.90;40.10
39493;DHT22;25176;51.060;3.720;2023-05-18T08:57:00;30.10;40.50
39493;DHT22;25176;51.060;3.720;2023-05-18T08:59:28;27.50;41.80
39493;DHT22;25176;51.060;3.720;2023-05-18T09:01:55;28.10;42.50
39493;DHT22;25176;51.060;3.720;2023-05-18T09:04:21;30.00;40.30
39493;DHT22;25176;51.060;3.720;2023-05-18T09:06:47;29.60;40.60
39493;DHT22;25176;51.060;3.720;2023-05-18T09:09:12;28.20;39.80
39493;DHT22;25176;51.060;3.720;2023-05-18T09:11:38;27.50;40.60
39493;DHT22;25176;51.060;3.720;2023-05-18T09:14:04;26.00;42.70
39493;DHT22;25176;51.060;3.720;2023-05-18T09:16:29;24.40;44.20
39493;DHT22;25176;51.060;3.720;2023-05-18T09:18:55;22.80;46.00
39493;DHT22;25176;51.060;3.720;2023-05-18T09:21:20;22.90;46.90
39493;DHT22;25176;51.060;3.720;2023-05-18T09:23:46;22.40;47.90
39493;DHT22;25176;51.060;3.720;2023-05-18T09:26:11;22.90;47.10
39493;DHT22;25176;51.060;3.720;2023-05-18T09:28:38;23.70;46.40
39493;DHT22;25176;51.060;3.720;2023-05-18T09:31:04;23.90;46.80
39493;DHT22;25176;51.060;3.720;2023-05-18T09:33:33;23.60;45.30
39493;DHT22;25176;51.060;3.720;2023-05-18T09:35:59;23.90;45.20
39493;DHT22;25176;51.060;3.720;2023-05-18T09:38:24;23.80;45.20
39493;DHT22;25176;51.060;3.720;2023-05-18T09:40:52;23.10;46.60
39493;DHT22;25176;51.060;3.720;2023-05-18T09:43:17;23.60;46.80
39493;DHT22;25176;51.060;3.720;2023-05-18T09:45:43;24.00;46.00
39493;DHT22;25176;51.060;3.720;2023-05-18T09:48:10;24.80;45.20
39493;DHT22;25176;51.060;3.720;2023-05-18T09:50:35;26.40;43.80
39493;DHT22;25176;51.060;3.720;2023-05-18T09:53:02;25.40;44.80
39493;DHT22;25176;51.060;3.720;2023-05-18T09:55:30;24.30;45.10
39493;DHT22;25176;51.060;3.720;2023-05-18T09:57:55;24.80;45.40
39493;DHT22;25176;51.060;3.720;2023-05-18T10:00:21;24.40;45.40
39493;DHT22;25176;51.060;3.720;2023-05-18T10:02:48;24.50;45.60
39493;DHT22;25176;51.060;3.720;2023-05-18T10:05:28;25.20;44.80
39493;DHT22;25176;51.060;3.720;2023-05-18T10:07:59;25.50;43.60
39493;DHT22;25176;51.060;3.720;2023-05-18T10:10:25;25.00;44.00
39493;DHT22;25176;51.060;3.720;2023-05-18T10:12:51;26.80;43.50
39493;DHT22;25176;51.060;3.720;2023-05-18T10:15:19;27.80;41.60
39493;DHT22;25176;51.060;3.720;2023-05-18T10:17:48;28.00;41.00
39493;DHT22;25176;51.060;3.720;2023-05-18T10:20:19;25.50;42.80
39493;DHT22;25176;51.060;3.720;2023-05-18T10:22:45;24.60;43.90
39493;DHT22;25176;51.060;3.720;2023-05-18T10:25:13;23.50;46.10
39493;DHT22;25176;51.060;3.720;2023-05-18T10:27:40;23.00;46.80
39493;DHT22;25176;51.060;3.720;2023-05-18T10:30:08;23.00;45.90
39493;DHT22;25176;51.060;3.720;2023-05-18T10:32:34;22.20;47.30
39493;DHT22;25176;51.060;3.720;2023-05-18T10:35:00;22.40;48.00
39493;DHT22;25176;51.060;3.720;2023-05-18T10:37:26;22.30;48.10
39493;DHT22;25176;51.060;3.720;2023-05-18T10:39:55;23.00;46.60
39493;DHT22;25176;51.060;3.720;2023-05-18T10:42:21;22.90;46.80
39493;DHT22;25176;51.060;3.720;2023-05-18T10:44:47;23.20;45.90
39493;DHT22;25176;51.060;3.720;2023-05-18T10:47:14;23.00;46.40
39493;DHT22;25176;51.060;3.720;2023-05-18T10:49:43;22.90;46.30
39493;DHT22;25176;51.060;3.720;2023-05-18T10:52:11;22.50;47.40
39493;DHT22;25176;51.060;3.720;2023-05-18T10:54:37;22.30;47.60
39493;DHT22;25176;51.060;3.720;2023-05-18T10:57:04;21.30;48.40
39493;DHT22;25176;51.060;3.720;2023-05-18T10:59:29;20.70;49.90
39493;DHT22;25176;51.060;3.720;2023-05-18T11:01:55;20.50;50.90
39493;DHT22;25176;51.060;3.720;2023-05-18T11:04:22;20.50;49.90
39493;DHT22;25176;51.060;3.720;2023-05-18T11:06:58;20.70;49.30
39493;DHT22;25176;51.060;3.720;2023-05-18T11:09:24;20.30;50.10
39493;DHT22;25176;51.060;3.720;2023-05-18T11:11:56;19.90;51.20
39493;DHT22;25176;51.060;3.720;2023-05-18T11:14:28;19.80;50.80
39493;DHT22;25176;51.060;3.720;2023-05-18T11:19:38;19.50;51.70
39493;DHT22;25176;51.060;3.720;2023-05-18T11:22:10;19.50;52.00
39493;DHT22;25176;51.060;3.720;2023-05-18T11:24:35;19.00;52.40
39493;DHT22;25176;51.060;3.720;2023-05-18T11:27:12;19.20;51.20
39493;DHT22;25176;51.060;3.720;2023-05-18T11:29:42;18.90;52.70
39493;DHT22;25176;51.060;3.720;2023-05-18T11:32:23;18.80;52.60
39493;DHT22;25176;51.060;3.720;2023-05-18T11:34:51;18.70;54.10
39493;DHT22;25176;51.060;3.720;2023-05-18T11:37:46;18.90;54.60
39493;DHT22;25176;51.060;3.720;2023-05-18T11:40:12;19.40;54.80
39493;DHT22;25176;51.060;3.720;2023-05-18T11:42:40;19.60;53.90
39493;DHT22;25176;51.060;3.720;2023-05-18T11:45:06;19.70;53.20
39493;DHT22;25176;51.060;3.720;2023-05-18T11:47:32;20.10;53.20
39493;DHT22;25176;51.060;3.720;2023-05-18T11:49:58;19.50;53.60
39493;DHT22;25176;51.060;3.720;2023-05-18T11:52:24;19.50;53.60
39493;DHT22;25176;51.060;3.720;2023-05-18T11:54:51;19.20;53.20
39493;DHT22;25176;51.060;3.720;2023-05-18T11:57:24;18.90;53.90
39493;DHT22;25176;51.060;3.720;2023-05-18T11:59:54;18.90;53.00
39493;DHT22;25176;51.060;3.720;2023-05-18T12:02:22;18.70;53.30
39493;DHT22;25176;51.060;3.720;2023-05-18T12:04:50;18.20;54.70
39493;DHT22;25176;51.060;3.720;2023-05-18T12:07:16;18.20;54.80
39493;DHT22;25176;51.060;3.720;2023-05-18T12:09:43;18.60;53.60
39493;DHT22;25176;51.060;3.720;2023-05-18T12:12:10;18.60;53.90
39493;DHT22;25176;51.060;3.720;2023-05-18T12:14:40;18.50;53.90
39493;DHT22;25176;51.060;3.720;2023-05-18T12:17:05;18.60;53.50
39493;DHT22;25176;51.060;3.720;2023-05-18T12:19:40;18.60;54.50
39493;DHT22;25176;51.060;3.720;2023-05-18T12:22:07;18.70;54.60
39493;DHT22;25176;51.060;3.720;2023-05-18T12:24:32;18.50;55.20
39493;DHT22;25176;51.060;3.720;2023-05-18T12:26:58;18.40;55.80
39493;DHT22;25176;51.060;3.720;2023-05-18T12:29:28;18.00;55.40
39493;DHT22;25176;51.060;3.720;2023-05-18T12:31:54;17.60;56.00
39493;DHT22;25176;51.060;3.720;2023-05-18T12:34:19;17.70;55.90
39493;DHT22;25176;51.060;3.720;2023-05-18T12:36:51;17.70;56.10
39493;DHT22;25176;51.060;3.720;2023-05-18T12:39:18;18.00;55.60
39493;DHT22;25176;51.060;3.720;2023-05-18T12:41:43;18.00;55.10
39493;DHT22;25176;51.060;3.720;2023-05-18T12:44:09;18.00;54.70
39493;DHT22;25176;51.060;3.720;2023-05-18T12:46:35;18.00;55.70
39493;DHT22;25176;51.060;3.720;2023-05-18T12:49:00;18.10;56.50
39493;DHT22;25176;51.060;3.720;2023-05-18T12:51:32;17.80;56.90
39493;DHT22;25176;51.060;3.720;2023-05-18T12:53:59;17.70;57.40
39493;DHT22;25176;51.060;3.720;2023-05-18T12:56:25;17.90;57.50
39493;DHT22;25176;51.060;3.720;2023-05-18T12:58:57;18.00;57.30
39493;DHT22;25176;51.060;3.720;2023-05-18T13:01:23;17.70;57.40
39493;DHT22;25176;51.060;3.720;2023-05-18T13:03:55;17.70;57.50
39493;DHT22;25176;51.060;3.720;2023-05-18T13:06:22;17.80;57.50
39493;DHT22;25176;51.060;3.720;2023-05-18T13:08:47;17.80;56.90
39493;DHT22;25176;51.060;3.720;2023-05-18T13:11:13;18.00;56.50
39493;DHT22;25176;51.060;3.720;2023-05-18T13:13:56;18.00;57.00
39493;DHT22;25176;51.060;3.720;2023-05-18T13:16:22;17.80;56.70
39493;DHT22;25176;51.060;3.720;2023-05-18T13:18:54;17.80;56.90
39493;DHT22;25176;51.060;3.720;2023-05-18T13:21:20;17.80;56.30
39493;DHT22;25176;51.060;3.720;2023-05-18T13:23:45;17.80;56.00
39493;DHT22;25176;51.060;3.720;2023-05-18T13:26:11;17.70;56.20
39493;DHT22;25176;51.060;3.720;2023-05-18T13:28:37;17.80;56.10
39493;DHT22;25176;51.060;3.720;2023-05-18T13:31:05;17.70;57.00
39493;DHT22;25176;51.060;3.720;2023-05-18T13:33:33;17.70;56.30
39493;DHT22;25176;51.060;3.720;2023-05-18T13:35:58;17.50;56.80
39493;DHT22;25176;51.060;3.720;2023-05-18T13:38:24;17.60;56.40
39493;DHT22;25176;51.060;3.720;2023-05-18T13:40:49;17.50;57.30
39493;DHT22;25176;51.060;3.720;2023-05-18T13:43:14;17.70;57.80
39493;DHT22;25176;51.060;3.720;2023-05-18T13:45:40;17.90;56.70
39493;DHT22;25176;51.060;3.720;2023-05-18T13:48:06;18.00;56.40
39493;DHT22;25176;51.060;3.720;2023-05-18T13:50:33;17.70;57.30
39493;DHT22;25176;51.060;3.720;2023-05-18T13:52:58;17.70;58.00
39493;DHT22;25176;51.060;3.720;2023-05-18T13:55:24;17.60;58.20
39493;DHT22;25176;51.060;3.720;2023-05-18T13:57:49;17.60;58.30
39493;DHT22;25176;51.060;3.720;2023-05-18T14:00:15;17.80;57.80
39493;DHT22;25176;51.060;3.720;2023-05-18T14:02:44;17.90;57.10
39493;DHT22;25176;51.060;3.720;2023-05-18T14:05:10;17.70;57.40
39493;DHT22;25176;51.060;3.720;2023-05-18T14:07:36;17.60;57.60
39493;DHT22;25176;51.060;3.720;2023-05-18T14:10:02;17.50;58.30
39493;DHT22;25176;51.060;3.720;2023-05-18T14:12:28;17.60;58.00
39493;DHT22;25176;51.060;3.720;2023-05-18T14:14:54;17.60;57.90
39493;DHT22;25176;51.060;3.720;2023-05-18T14:17:19;17.80;57.30
39493;DHT22;25176;51.060;3.720;2023-05-18T14:19:45;17.90;56.00
39493;DHT22;25176;51.060;3.720;2023-05-18T14:22:10;17.90;55.40
39493;DHT22;25176;51.060;3.720;2023-05-18T14:24:36;18.00;55.40
39493;DHT22;25176;51.060;3.720;2023-05-18T14:27:01;17.90;56.00
39493;DHT22;25176;51.060;3.720;2023-05-18T14:29:27;18.10;57.20
39493;DHT22;25176;51.060;3.720;2023-05-18T14:31:53;18.10;57.20
39493;DHT22;25176;51.060;3.720;2023-05-18T14:34:18;17.70;58.10
39493;DHT22;25176;51.060;3.720;2023-05-18T14:36:44;17.70;56.90
39493;DHT22;25176;51.060;3.720;2023-05-18T14:39:10;17.60;57.90
39493;DHT22;25176;51.060;3.720;2023-05-18T14:41:36;17.60;58.20
39493;DHT22;25176;51.060;3.720;2023-05-18T14:44:01;17.60;57.50
39493;DHT22;25176;51.060;3.720;2023-05-18T14:46:28;17.70;57.10
39493;DHT22;25176;51.060;3.720;2023-05-18T14:48:54;17.80;57.60
39493;DHT22;25176;51.060;3.720;2023-05-18T14:51:19;17.40;57.90
39493;DHT22;25176;51.060;3.720;2023-05-18T14:53:46;17.30;58.50
39493;DHT22;25176;51.060;3.720;2023-05-18T14:56:11;17.50;59.40
39493;DHT22;25176;51.060;3.720;2023-05-18T14:58:37;17.60;59.20
39493;DHT22;25176;51.060;3.720;2023-05-18T15:01:02;17.70;58.90
39493;DHT22;25176;51.060;3.720;2023-05-18T15:03:28;17.60;58.10
39493;DHT22;25176;51.060;3.720;2023-05-18T15:05:53;17.50;58.70
39493;DHT22;25176;51.060;3.720;2023-05-18T15:08:19;17.60;58.10
39493;DHT22;25176;51.060;3.720;2023-05-18T15:10:44;17.80;57.50
39493;DHT22;25176;51.060;3.720;2023-05-18T15:13:10;17.90;57.20
39493;DHT22;25176;51.060;3.720;2023-05-18T15:15:35;17.80;57.90
39493;DHT22;25176;51.060;3.720;2023-05-18T15:18:01;17.70;58.30
39493;DHT22;25176;51.060;3.720;2023-05-18T15:20:26;17.80;57.90
39493;DHT22;25176;51.060;3.720;2023-05-18T15:22:52;17.50;58.30
39493;DHT22;25176;51.060;3.720;2023-05-18T15:25:17;17.50;58.60
39493;DHT22;25176;51.060;3.720;2023-05-18T15:27:43;17.40;58.20
39493;DHT22;25176;51.060;3.720;2023-05-18T15:30:09;17.40;58.80
39493;DHT22;25176;51.060;3.720;2023-05-18T15:32:38;17.40;59.40
39493;DHT22;25176;51.060;3.720;2023-05-18T15:35:04;17.40;59.30
39493;DHT22;25176;51.060;3.720;2023-05-18T15:37:29;17.60;58.90